Time;durP1;ratioP1;P1;durP2;ratioP2;P2;SDS_P1;SDS_P2;PMS_P1;PMS_P2;Temp;Humidity;BMP_temperature;BMP_pressure;BME280_temperature;BME280_humidity;BME280_pressure;Samples;Min_cycle;Max_cycle;Signal;HPM_P1;HPM_P2
2024/02/05 00:01:56;;;;;;;7.07;1.33;;;;;;;9.90;75.96;100710.84;5037224;28;20383;-57
2024/02/05 00:04:23;;;;;;;9.32;2.63;;;;;;;9.96;75.86;100715.22;5038684;28;20051;-54
2024/02/05 00:06:49;;;;;;;11.80;1.65;;;;;;;9.92;75.51;100713.47;5038710;28;20771;-57
2024/02/05 00:09:19;;;;;;;6.55;1.90;;;;;;;9.92;75.99;100713.47;5038483;28;20053;-60
2024/02/05 00:11:45;;;;;;;9.45;1.65;;;;;;;9.81;76.20;100705.59;5035531;28;20529;-60
2024/02/05 00:14:12;;;;;;;29.02;2.42;;;;;;;9.91;75.59;100732.44;5036122;28;20056;-56
2024/02/05 00:16:39;;;;;;;12.05;1.98;;;;;;;9.90;75.78;100715.19;5043663;28;20075;-59
2024/02/05 00:19:07;;;;;;;8.43;2.22;;;;;;;9.90;76.02;100720.34;5039567;28;20060;-58
2024/02/05 00:21:33;;;;;;;11.90;1.55;;;;;;;9.92;75.54;100723.81;5036214;28;20051;-53
2024/02/05 00:24:00;;;;;;;10.15;2.28;;;;;;;9.89;75.69;100731.53;5037836;28;20049;-56
2024/02/05 00:26:27;;;;;;;14.18;2.28;;;;;;;9.94;75.39;100732.47;5043628;28;20041;-56
2024/02/05 00:28:54;;;;;;;10.57;3.33;;;;;;;9.98;74.97;100736.84;5036664;28;20541;-57
2024/02/05 00:31:22;;;;;;;15.60;2.75;;;;;;;9.98;75.61;100734.25;5039885;28;20055;-54
2024/02/05 00:33:49;;;;;;;14.95;2.20;;;;;;;10.00;74.77;100739.44;5042624;28;20817;-58
2024/02/05 00:36:16;;;;;;;18.70;2.67;;;;;;;9.96;75.52;100743.69;5044313;28;20460;-59
2024/02/05 00:38:43;;;;;;;3.67;1.25;;;;;;;9.89;75.38;100744.47;5045279;28;20053;-57
2024/02/05 00:41:10;;;;;;;10.70;2.00;;;;;;;9.91;74.90;100737.63;5042485;28;20049;-53
2024/02/05 00:43:36;;;;;;;14.00;2.28;;;;;;;9.99;75.02;100746.31;5048073;28;20057;-53
2024/02/05 00:46:03;;;;;;;13.40;2.25;;;;;;;9.97;74.94;100737.66;5041151;28;20509;-53
2024/02/05 00:48:30;;;;;;;14.20;2.10;;;;;;;10.00;74.99;100747.22;5039664;28;20052;-56
2024/02/05 00:50:57;;;;;;;11.52;2.90;;;;;;;9.97;75.27;100732.47;5046794;28;20060;-56
2024/02/05 00:53:23;;;;;;;10.18;2.28;;;;;;;9.98;74.66;100736.84;5038967;28;20049;-58
2024/02/05 00:55:50;;;;;;;14.82;2.53;;;;;;;9.93;74.36;100729.88;5034303;28;20739;-56
2024/02/05 00:58:17;;;;;;;14.00;2.38;;;;;;;9.93;74.71;100735.03;5040475;28;20069;-55
2024/02/05 01:00:44;;;;;;;6.25;2.00;;;;;;;9.85;74.85;100732.34;5042032;28;20075;-53
2024/02/05 01:03:11;;;;;;;7.03;1.30;;;;;;;9.78;74.38;100736.59;5043906;28;20059;-57
2024/02/05 01:05:39;;;;;;;11.88;1.83;;;;;;;9.86;74.95;100744.47;5039954;28;20084;-53
2024/02/05 01:08:06;;;;;;;9.05;1.98;;;;;;;9.88;74.33;100743.63;5044736;28;20049;-55
2024/02/05 01:10:33;;;;;;;15.13;2.25;;;;;;;9.91;74.07;100735.03;5035204;28;20049;-56
2024/02/05 01:13:02;;;;;;;8.02;1.60;;;;;;;9.90;74.55;100738.47;5042878;28;20056;-56
2024/02/05 01:15:30;;;;;;;11.55;1.70;;;;;;;9.90;74.41;100738.47;5039062;28;20124;-52
2024/02/05 01:17:57;;;;;;;16.40;2.42;;;;;;;9.86;73.70;100739.28;5045496;28;20056;-56
2024/02/05 01:20:25;;;;;;;11.23;1.80;;;;;;;9.87;74.00;100738.44;5034977;28;20060;-54
2024/02/05 01:22:53;;;;;;;13.50;2.28;;;;;;;9.85;74.32;100737.53;5037216;28;20045;-52
2024/02/05 01:25:21;;;;;;;9.23;2.33;;;;;;;9.84;74.47;100734.09;5039377;28;20096;-54
2024/02/05 01:27:48;;;;;;;9.27;1.80;;;;;;;9.89;74.76;100728.94;5038971;28;20475;-61
2024/02/05 01:30:16;;;;;;;10.18;2.30;;;;;;;9.87;73.80;100730.66;5042138;28;20083;-55
2024/02/05 01:32:43;;;;;;;8.65;1.27;;;;;;;9.79;74.33;100725.38;5035128;28;20069;-56
2024/02/05 01:35:11;;;;;;;10.32;2.17;;;;;;;9.80;74.02;100723.69;5039971;28;20057;-54
2024/02/05 01:37:39;;;;;;;12.75;2.17;;;;;;;9.82;74.42;100724.56;5038066;28;20053;-54
2024/02/05 01:40:09;;;;;;;8.85;2.40;;;;;;;9.81;74.52;100709.88;5038338;28;20119;-56
2024/02/05 01:42:39;;;;;;;8.43;1.73;;;;;;;9.75;74.56;100711.56;5034748;28;20060;-57
2024/02/05 01:45:09;;;;;;;6.43;1.63;;;;;;;9.73;74.36;100707.22;5037571;28;20049;-56
2024/02/05 01:47:38;;;;;;;6.28;1.23;;;;;;;9.68;74.78;100699.41;5033362;28;20506;-58
2024/02/05 01:50:10;;;;;;;13.68;2.75;;;;;;;9.71;74.63;100704.63;5068955;28;20481;-58
2024/02/05 01:52:44;;;;;;;6.88;2.80;;;;;;;9.64;74.45;100697.63;5036183;28;20053;-57
2024/02/05 01:55:14;;;;;;;10.45;1.83;;;;;;;9.55;74.46;100694.97;5038126;28;20080;-55
2024/02/05 01:57:41;;;;;;;10.98;2.05;;;;;;;9.61;74.59;100697.59;5039202;28;20139;-58
2024/02/05 02:00:11;;;;;;;7.07;1.60;;;;;;;9.61;74.57;100705.34;5040928;28;20061;-55
2024/02/05 02:02:40;;;;;;;14.90;2.50;;;;;;;9.65;74.70;100694.19;5041854;28;20160;-56
2024/02/05 02:05:07;;;;;;;8.20;1.88;;;;;;;9.55;74.88;100697.53;5042412;28;20099;-55
2024/02/05 02:07:34;;;;;;;13.65;2.72;;;;;;;9.58;74.72;100702.72;5032873;28;20076;-56
2024/02/05 02:10:01;;;;;;;6.10;1.38;;;;;;;9.55;74.08;100697.53;5035134;28;20414;-58
2024/02/05 02:12:29;;;;;;;7.90;1.88;;;;;;;9.59;74.39;100700.16;5034715;28;20077;-57
2024/02/05 02:14:56;;;;;;;10.07;2.42;;;;;;;9.63;73.92;100693.31;5034904;28;20064;-54
2024/02/05 02:17:24;;;;;;;6.43;1.48;;;;;;;9.57;74.37;100706.16;5035407;28;20045;-57
2024/02/05 02:19:52;;;;;;;11.75;2.40;;;;;;;9.57;74.54;100693.25;5036372;28;20044;-57
2024/02/05 02:22:37;;;;;;;10.32;1.55;;;;;;;9.50;74.52;100693.16;5035810;28;20093;-58
2024/02/05 02:25:06;;;;;;;9.80;2.92;;;;;;;9.49;74.96;100688.84;5036414;28;20071;-52
2024/02/05 02:27:33;;;;;;;10.35;2.15;;;;;;;9.45;74.44;100676.72;5042731;28;20048;-58
2024/02/05 02:30:01;;;;;;;11.90;1.90;;;;;;;9.39;75.16;100676.63;5040697;28;20457;-55
2024/02/05 02:35:13;;;;;;;15.35;2.60;;;;;;;9.36;75.09;100681.81;5070671;27;20391;-56
2024/02/05 02:37:46;;;;;;;13.43;2.13;;;;;;;9.32;74.85;100680.88;5027376;28;20049;-56
2024/02/05 02:40:16;;;;;;;16.08;2.72;;;;;;;9.36;74.42;100681.81;5022262;28;20049;-56
2024/02/05 02:42:45;;;;;;;9.60;2.35;;;;;;;9.35;74.82;100677.47;5020698;28;20176;-57
2024/02/05 02:45:12;;;;;;;11.48;2.58;;;;;;;9.34;74.35;100683.47;5021904;28;20050;-55
2024/02/05 02:47:43;;;;;;;11.50;2.53;;;;;;;9.35;74.40;100682.63;5017738;28;20073;-56
2024/02/05 02:50:09;;;;;;;;;;;;;;;9.23;74.84;100673.88;5021308;28;20046;-61
2024/02/05 02:52:36;;;;;;;11.65;2.25;;;;;;;9.32;74.86;100680.03;5018986;28;19932;-58
2024/02/05 02:55:03;;;;;;;17.15;2.53;;;;;;;9.35;74.48;100683.50;5017771;28;20050;-58
2024/02/05 02:57:30;;;;;;;9.02;3.20;;;;;;;9.34;74.67;100675.72;5020157;28;20568;-60
2024/02/05 02:59:57;;;;;;;8.90;2.25;;;;;;;9.34;75.02;100667.97;5019075;28;20053;-55
2024/02/05 03:02:24;;;;;;;9.85;2.70;;;;;;;9.37;75.14;100657.66;5017976;28;20145;-57
2024/02/05 03:04:54;;;;;;;9.90;3.17;;;;;;;9.35;74.56;100654.19;5019368;28;20056;-52
2024/02/05 03:07:21;;;;;;;10.65;2.83;;;;;;;9.37;75.00;100649.91;5023900;28;20050;-59
2024/02/05 03:09:48;;;;;;;7.45;2.85;;;;;;;9.35;74.67;100646.44;5020116;28;20135;-58
2024/02/05 03:12:15;;;;;;;10.18;2.03;;;;;;;9.34;75.15;100642.13;5021896;28;20060;-55
2024/02/05 03:14:41;;;;;;;10.48;2.45;;;;;;;9.33;74.75;100638.69;5020059;28;20045;-57
2024/02/05 03:17:08;;;;;;;13.27;2.63;;;;;;;9.31;75.07;100642.06;5024965;28;20049;-54
2024/02/05 03:19:35;;;;;;;6.20;2.20;;;;;;;9.29;74.64;100643.78;5023474;28;20053;-55
2024/02/05 03:22:02;;;;;;;11.00;2.53;;;;;;;9.28;74.38;100634.31;5020252;28;20042;-53
2024/02/05 03:24:29;;;;;;;10.35;2.67;;;;;;;9.30;74.82;100635.19;5020596;28;20132;-55
2024/02/05 03:26:57;;;;;;;8.63;2.25;;;;;;;9.25;74.64;100630.81;5022363;28;20049;-57
2024/02/05 03:29:23;;;;;;;10.95;2.53;;;;;;;9.25;74.60;100630.81;5017039;28;20049;-60
2024/02/05 03:31:50;;;;;;;14.65;3.05;;;;;;;9.23;74.80;100622.16;5018790;28;20075;-57
2024/02/05 03:34:17;;;;;;;12.60;2.05;;;;;;;9.15;74.79;100621.22;5018057;28;20074;-58
2024/02/05 03:36:44;;;;;;;17.50;2.08;;;;;;;9.17;74.72;100624.69;5028203;28;20784;-57
2024/02/05 03:39:10;;;;;;;10.40;1.85;;;;;;;9.11;74.84;100614.28;5028045;28;20475;-59
2024/02/05 03:41:38;;;;;;;14.27;2.50;;;;;;;9.18;74.72;100620.41;5021774;28;20495;-53
2024/02/05 03:44:04;;;;;;;7.25;1.85;;;;;;;9.17;74.91;100614.34;5021120;28;20052;-52
2024/02/05 03:46:31;;;;;;;12.95;2.22;;;;;;;9.15;74.89;100610.03;5004638;28;20068;-58
2024/02/05 03:48:58;;;;;;;9.98;2.42;;;;;;;9.18;74.44;100616.09;5012007;28;20146;-54
2024/02/05 03:51:25;;;;;;;12.90;3.58;;;;;;;9.13;74.71;100608.25;5006351;28;20642;-56
2024/02/05 03:53:52;;;;;;;11.23;2.00;;;;;;;9.15;74.78;100600.53;5005772;28;20042;-57
2024/02/05 03:56:18;;;;;;;8.60;2.05;;;;;;;9.16;74.82;100602.28;5006588;28;20480;-54
2024/02/05 03:58:45;;;;;;;7.55;1.58;;;;;;;9.11;75.28;100585.84;5002934;28;20050;-58
2024/02/05 04:01:12;;;;;;;7.60;1.92;;;;;;;9.12;75.17;100591.03;5002705;28;20069;-57
2024/02/05 04:03:39;;;;;;;9.27;3.80;;;;;;;9.09;74.84;100585.81;5004654;28;20398;-55
2024/02/05 04:06:06;;;;;;;9.90;2.15;;;;;;;9.04;75.09;100594.38;5002655;28;20064;-57
2024/02/05 04:08:33;;;;;;;9.43;1.85;;;;;;;9.03;75.39;100590.94;5007636;28;20054;-56
2024/02/05 04:11:00;;;;;;;10.80;2.10;;;;;;;9.00;74.94;100583.13;5006441;28;20058;-53
2024/02/05 04:13:26;;;;;;;4.43;1.85;;;;;;;8.92;75.17;100580.44;5006176;28;20052;-58
2024/02/05 04:15:53;;;;;;;7.53;2.05;;;;;;;8.91;75.23;100581.31;5002126;28;20143;-57
2024/02/05 04:18:20;;;;;;;10.15;1.80;;;;;;;8.94;75.23;100586.50;5008716;28;20072;-58
2024/02/05 04:20:46;;;;;;;9.20;1.85;;;;;;;8.94;75.17;100573.59;5014828;28;20052;-57
2024/02/05 04:23:13;;;;;;;8.35;2.47;;;;;;;8.89;75.04;100577.84;5012818;28;20045;-57
2024/02/05 04:25:40;;;;;;;10.15;1.83;;;;;;;8.93;75.26;100579.63;5011619;28;20061;-54
2024/02/05 04:28:08;;;;;;;14.38;2.33;;;;;;;8.93;75.28;100569.28;5004852;28;20590;-55
2024/02/05 04:30:37;;;;;;;9.35;1.80;;;;;;;8.95;75.14;100561.56;5007191;28;20112;-57
2024/02/05 04:33:04;;;;;;;9.45;2.13;;;;;;;8.92;74.94;100556.34;5005550;28;20050;-60
2024/02/05 04:35:34;;;;;;;10.00;2.15;;;;;;;8.92;75.29;100552.03;5005680;28;20049;-53
2024/02/05 04:38:01;;;;;;;6.85;2.50;;;;;;;8.86;75.04;100546.81;5007068;28;20129;-60
2024/02/05 04:40:28;;;;;;;6.07;1.88;;;;;;;8.79;75.42;100545.00;5007536;28;20046;-51
2024/02/05 04:42:57;;;;;;;5.90;1.15;;;;;;;8.79;75.26;100539.81;5005732;28;20061;-57
2024/02/05 04:45:23;;;;;;;7.43;1.73;;;;;;;8.80;75.15;100541.53;5007136;28;20053;-55
2024/02/05 04:47:50;;;;;;;8.45;2.00;;;;;;;8.74;75.23;100532.88;5010449;28;20148;-59
2024/02/05 04:50:17;;;;;;;9.90;1.58;;;;;;;8.66;75.52;100516.44;5008182;28;20128;-54
2024/02/05 04:52:46;;;;;;;5.35;2.17;;;;;;;8.65;75.84;100537.91;5007699;28;20050;-58
2024/02/05 04:55:13;;;;;;;7.80;2.00;;;;;;;8.67;75.35;100536.22;5005360;28;20162;-54
2024/02/05 04:57:40;;;;;;;3.47;1.33;;;;;;;8.56;75.76;100537.81;5005708;28;20586;-55
2024/02/05 05:00:08;;;;;;;17.77;2.05;;;;;;;8.53;76.28;100542.88;5006494;28;20046;-57
2024/02/05 05:02:35;;;;;;;9.65;2.30;;;;;;;8.55;76.25;100546.41;5005071;28;20050;-52
2024/02/05 05:05:01;;;;;;;10.75;2.70;;;;;;;8.55;75.85;100543.81;5002162;28;20052;-54
2024/02/05 05:07:28;;;;;;;14.55;2.05;;;;;;;8.52;75.70;100546.31;5003576;28;20046;-53
2024/02/05 05:09:55;;;;;;;11.63;2.13;;;;;;;8.53;75.97;100529.97;5006462;28;20046;-52
2024/02/05 05:12:21;;;;;;;6.07;1.52;;;;;;;8.48;75.88;100519.63;5002717;28;20046;-55
2024/02/05 05:14:48;;;;;;;9.05;1.67;;;;;;;8.41;76.75;100526.38;5006345;28;20060;-58
2024/02/05 05:17:16;;;;;;;10.52;3.33;;;;;;;8.38;76.67;100528.94;4996604;28;20364;-55
2024/02/05 05:19:43;;;;;;;7.68;2.45;;;;;;;8.35;76.57;100532.31;4999450;28;20053;-58
2024/02/05 05:22:09;;;;;;;10.98;2.15;;;;;;;8.40;75.90;100537.56;5007780;28;20053;-60
2024/02/05 05:24:36;;;;;;;5.72;1.67;;;;;;;8.32;76.67;100534.00;5006632;28;20079;-58
2024/02/05 05:27:05;;;;;;;8.15;2.10;;;;;;;8.38;77.18;100533.22;5000317;28;20058;-53
2024/02/05 05:29:32;;;;;;;10.45;2.13;;;;;;;8.38;76.23;100534.09;4999919;28;20050;-53
2024/02/05 05:32:01;;;;;;;12.10;2.20;;;;;;;8.34;76.51;100525.44;5000002;28;20574;-58
2024/02/05 05:34:28;;;;;;;12.18;2.85;;;;;;;8.31;76.80;100521.97;5002480;28;20057;-53
2024/02/05 05:36:55;;;;;;;8.77;1.75;;;;;;;8.30;76.67;100517.63;4999401;28;20057;-56
2024/02/05 05:39:22;;;;;;;3.90;1.58;;;;;;;8.29;76.17;100523.63;5003592;28;20052;-56
2024/02/05 05:41:49;;;;;;;8.07;1.95;;;;;;;8.21;77.18;100510.63;5010106;28;20058;-56
2024/02/05 05:44:15;;;;;;;5.32;1.73;;;;;;;8.21;76.78;100518.38;5006902;28;20061;-51
2024/02/05 05:46:43;;;;;;;8.68;1.98;;;;;;;8.22;76.62;100518.41;5004223;28;20056;-58
2024/02/05 05:49:10;;;;;;;10.90;3.50;;;;;;;8.18;76.98;100506.28;5006598;28;20722;-55
2024/02/05 05:51:37;;;;;;;11.50;3.25;;;;;;;8.17;76.94;100501.97;5003922;28;20045;-53
2024/02/05 05:54:03;;;;;;;12.68;2.28;;;;;;;8.13;77.61;100492.44;5005029;28;20125;-53
2024/02/05 05:56:31;;;;;;;7.60;2.55;;;;;;;8.15;77.65;100495.94;5007440;28;20058;-53
2024/02/05 05:58:58;;;;;;;5.50;1.73;;;;;;;8.09;77.22;100490.66;5009444;28;20072;-50
2024/02/05 06:01:25;;;;;;;14.35;1.98;;;;;;;7.98;77.61;100493.94;5006319;28;20088;-55
2024/02/05 06:03:51;;;;;;;10.40;2.10;;;;;;;8.02;77.29;100499.16;5004862;28;20112;-53
2024/02/05 06:06:18;;;;;;;6.65;2.00;;;;;;;8.00;77.44;100496.56;5004848;28;20049;-57
2024/02/05 06:08:45;;;;;;;7.05;2.45;;;;;;;7.97;77.23;100502.53;5006036;28;20048;-53
2024/02/05 06:11:12;;;;;;;6.13;2.47;;;;;;;7.98;77.79;100488.78;5003268;28;20069;-54
2024/02/05 06:13:38;;;;;;;5.10;2.30;;;;;;;7.96;78.05;100480.19;5006135;28;20062;-57
2024/02/05 06:16:08;;;;;;;6.15;2.60;;;;;;;7.92;78.70;100478.41;5005770;28;20054;-59
2024/02/05 06:18:35;;;;;;;5.47;2.00;;;;;;;7.95;77.59;100473.28;5006533;28;20050;-55
2024/02/05 06:21:06;;;;;;;17.40;2.67;;;;;;;7.92;78.22;100468.09;5010740;28;20050;-56
2024/02/05 06:23:33;;;;;;;5.30;2.05;;;;;;;7.91;77.78;100476.63;5007725;28;20054;-53
2024/02/05 06:26:00;;;;;;;9.00;2.15;;;;;;;7.91;77.80;100471.47;5003138;28;20054;-57
2024/02/05 06:28:26;;;;;;;11.52;3.08;;;;;;;7.97;78.18;100461.25;5006098;28;20053;-56
2024/02/05 06:30:53;;;;;;;10.52;2.63;;;;;;;7.98;77.65;100457.00;5006894;28;20064;-52
2024/02/05 06:33:20;;;;;;;8.20;2.33;;;;;;;7.88;78.86;100455.97;5006780;28;20488;-57
2024/02/05 06:35:47;;;;;;;6.28;2.35;;;;;;;7.81;79.02;100454.16;5006835;28;20052;-54
2024/02/05 06:38:15;;;;;;;13.27;2.70;;;;;;;7.93;78.51;100444.00;5005849;28;20710;-57
2024/02/05 06:40:42;;;;;;;10.20;2.28;;;;;;;7.91;78.80;100447.41;5005117;28;20050;-60
2024/02/05 06:43:09;;;;;;;6.43;2.40;;;;;;;7.89;79.10;100447.41;5009925;28;20069;-53
2024/02/05 06:45:37;;;;;;;7.85;3.58;;;;;;;7.88;78.12;100445.66;5013198;28;20574;-55
2024/02/05 06:48:04;;;;;;;11.90;2.20;;;;;;;7.93;79.17;100444.00;5006763;28;20058;-52
2024/02/05 06:50:32;;;;;;;6.90;2.42;;;;;;;7.95;78.18;100439.75;5011436;28;20157;-56
2024/02/05 06:52:58;;;;;;;10.45;2.00;;;;;;;7.90;78.49;100440.53;5013870;28;20049;-55
2024/02/05 06:55:25;;;;;;;4.68;1.77;;;;;;;7.82;78.74;100440.41;5004508;28;20650;-56
2024/02/05 06:57:52;;;;;;;14.07;3.30;;;;;;;7.94;78.03;100426.84;5003494;28;20111;-57
2024/02/05 07:00:19;;;;;;;6.85;3.08;;;;;;;7.93;78.28;100427.66;5005065;28;20049;-55
2024/02/05 07:02:45;;;;;;;11.07;3.67;;;;;;;7.93;78.57;100423.38;5004071;28;20450;-53
2024/02/05 07:05:14;;;;;;;7.22;2.13;;;;;;;7.90;78.92;100433.66;5003508;28;20050;-53
2024/02/05 07:07:41;;;;;;;5.63;1.77;;;;;;;7.86;78.00;100429.28;5005119;28;20092;-59
2024/02/05 07:10:09;;;;;;;5.85;2.30;;;;;;;7.90;78.71;100431.06;5004757;28;20064;-60
2024/02/05 07:12:37;;;;;;;10.30;2.58;;;;;;;7.82;79.00;100424.94;5003453;28;20104;-57
2024/02/05 07:15:06;;;;;;;17.27;3.47;;;;;;;7.89;78.57;100416.44;5005158;28;20499;-57
2024/02/05 07:17:34;;;;;;;4.45;1.65;;;;;;;7.83;78.56;100406.03;5007529;28;20056;-58
2024/02/05 07:20:02;;;;;;;6.25;1.52;;;;;;;7.77;78.71;100388.75;5000177;28;20046;-52
2024/02/05 07:22:29;;;;;;;7.10;1.85;;;;;;;7.74;78.32;100395.59;5006363;28;20081;-54
2024/02/05 07:24:56;;;;;;;11.60;1.80;;;;;;;7.77;78.65;100387.91;5007642;28;20108;-52
2024/02/05 07:27:25;;;;;;;6.40;1.50;;;;;;;7.76;79.13;100391.31;5007663;28;20081;-55
2024/02/05 07:29:52;;;;;;;10.30;3.20;;;;;;;7.77;78.53;100390.50;5003473;28;20132;-53
2024/02/05 07:32:19;;;;;;;5.35;2.13;;;;;;;7.66;78.43;100390.31;5000754;28;20080;-60
2024/02/05 07:34:47;;;;;;;14.05;2.85;;;;;;;7.62;78.29;100392.00;5007366;28;20038;-55
2024/02/05 07:37:14;;;;;;;12.45;2.17;;;;;;;7.66;78.79;100398.91;5005299;28;20057;-52
2024/02/05 07:39:41;;;;;;;5.97;2.20;;;;;;;7.66;79.11;100404.06;5004625;28;20050;-58
2024/02/05 07:42:07;;;;;;;6.68;1.75;;;;;;;7.63;79.30;100404.03;5005672;28;20119;-55
2024/02/05 07:44:34;;;;;;;7.75;2.70;;;;;;;7.63;78.87;100396.28;5011343;28;20041;-56
2024/02/05 07:47:01;;;;;;;7.40;2.67;;;;;;;7.70;78.40;100408.44;5003545;28;20049;-53
2024/02/05 07:49:27;;;;;;;10.75;2.60;;;;;;;7.66;78.33;100406.66;5004690;28;20062;-52
2024/02/05 07:51:56;;;;;;;6.93;2.13;;;;;;;7.69;78.92;100411.88;5001574;28;20128;-54
2024/02/05 07:54:24;;;;;;;6.75;2.22;;;;;;;7.64;79.12;100398.06;5001455;28;20140;-56
2024/02/05 07:56:51;;;;;;;7.15;1.75;;;;;;;7.71;78.64;100404.16;5001901;28;20046;-59
2024/02/05 07:59:18;;;;;;;4.70;1.60;;;;;;;7.76;78.86;100399.03;5018984;28;20046;-57
2024/02/05 08:01:46;;;;;;;14.02;2.58;;;;;;;7.80;78.98;100390.53;5001504;28;20052;-52
2024/02/05 08:04:13;;;;;;;12.00;2.45;;;;;;;7.81;78.72;100394.84;4997652;28;20566;-59
2024/02/05 08:06:40;;;;;;;7.85;2.00;;;;;;;7.82;78.64;100394.00;4997371;28;20305;-54
2024/02/05 08:09:07;;;;;;;13.38;3.97;;;;;;;7.91;77.66;100404.41;5005744;28;20058;-56
2024/02/05 08:11:34;;;;;;;9.50;2.10;;;;;;;7.89;78.12;100407.81;5001157;28;20054;-53
2024/02/05 08:14:00;;;;;;;12.15;3.70;;;;;;;7.96;78.16;100413.13;5002043;28;20046;-56
2024/02/05 08:16:28;;;;;;;3.65;2.05;;;;;;;8.04;78.28;100425.25;5000867;28;20046;-57
2024/02/05 08:18:55;;;;;;;12.73;2.00;;;;;;;8.16;77.89;100429.69;4998668;28;20054;-60
2024/02/05 08:21:22;;;;;;;7.53;3.05;;;;;;;8.13;77.58;100430.53;4999279;28;20057;-59
2024/02/05 08:23:50;;;;;;;8.77;2.53;;;;;;;8.12;77.70;100426.22;5002311;28;20059;-53
2024/02/05 08:26:18;;;;;;;7.15;2.03;;;;;;;8.06;77.57;100414.09;5001946;28;20108;-56
2024/02/05 08:28:48;;;;;;;5.53;2.25;;;;;;;8.06;78.24;100424.41;5001382;28;20047;-55
2024/02/05 08:31:16;;;;;;;;;;;;;;;7.95;78.08;100421.69;5000107;28;20045;-53
2024/02/05 08:33:43;;;;;;;5.85;2.13;;;;;;;8.00;78.33;100418.31;4997440;28;20404;-56
2024/02/05 08:36:09;;;;;;;7.57;2.00;;;;;;;8.04;78.64;100409.78;5002574;28;20103;-55
2024/02/05 08:38:36;;;;;;;3.65;2.35;;;;;;;8.07;77.46;100404.66;4999219;28;20050;-56
2024/02/05 08:41:03;;;;;;;9.43;2.20;;;;;;;8.09;77.68;100408.09;4997704;28;20042;-54
2024/02/05 08:43:29;;;;;;;7.13;1.75;;;;;;;8.10;78.60;100394.34;4999853;28;20562;-57
2024/02/05 08:45:56;;;;;;;5.30;1.63;;;;;;;8.13;78.79;100388.38;4997827;28;20045;-56
2024/02/05 08:48:23;;;;;;;4.75;1.45;;;;;;;8.18;78.62;100387.56;4997254;28;20105;-57
2024/02/05 08:50:52;;;;;;;4.20;1.63;;;;;;;8.22;78.26;100376.47;5004759;28;20053;-52
2024/02/05 08:53:19;;;;;;;4.90;1.20;;;;;;;8.21;78.38;100368.72;5002522;28;20081;-55
2024/02/05 08:55:45;;;;;;;5.28;1.38;;;;;;;8.17;78.13;100372.94;5004749;28;20125;-60
2024/02/05 08:58:14;;;;;;;2.50;1.05;;;;;;;8.29;78.17;100380.00;5001603;28;20049;-55
2024/02/05 09:00:41;;;;;;;5.10;1.83;;;;;;;8.33;78.24;100370.56;4998096;28;20045;-60
2024/02/05 09:03:10;;;;;;;3.13;2.50;;;;;;;8.43;78.01;100364.66;4999595;28;20387;-54
2024/02/05 09:05:38;;;;;;;3.63;1.15;;;;;;;8.39;78.10;100370.63;5001845;28;20045;-57
2024/02/05 09:08:13;;;;;;;4.97;1.80;;;;;;;8.54;78.28;100372.53;5000997;28;20411;-55
2024/02/05 09:10:40;;;;;;;2.65;1.00;;;;;;;8.60;78.07;100376.91;5002706;28;20069;-54
2024/02/05 09:13:07;;;;;;;2.90;1.27;;;;;;;8.61;77.43;100378.63;5002364;28;20054;-59
2024/02/05 09:15:39;;;;;;;1.77;1.10;;;;;;;8.66;77.52;100374.41;5006131;28;20049;-57
2024/02/05 09:18:07;;;;;;;2.08;1.02;;;;;;;8.63;77.81;100379.53;5005918;28;20706;-57
2024/02/05 09:20:36;;;;;;;1.67;1.02;;;;;;;8.70;77.82;100371.00;4999746;28;20046;-50
2024/02/05 09:23:03;;;;;;;0.88;0.88;;;;;;;8.71;77.97;100377.88;5001812;28;20054;-52
2024/02/05 09:25:29;;;;;;;3.45;0.77;;;;;;;8.79;77.99;100369.34;5003697;28;20491;-58
2024/02/05 09:27:57;;;;;;;5.78;1.95;;;;;;;8.88;77.90;100374.59;5000053;28;20132;-56
2024/02/05 09:30:23;;;;;;;21.15;6.95;;;;;;;8.87;77.64;100373.75;4999565;28;20145;-55
2024/02/05 09:32:51;;;;;;;21.05;6.95;;;;;;;8.94;77.24;100364.34;4997996;28;20137;-52
2024/02/05 09:35:18;;;;;;;5.88;1.65;;;;;;;8.91;77.68;100371.19;5005817;28;20462;-58
2024/02/05 09:37:45;;;;;;;4.35;2.05;;;;;;;8.98;77.54;100368.66;4998865;28;20058;-56
2024/02/05 09:40:12;;;;;;;1.95;1.00;;;;;;;8.97;77.49;100359.19;4998787;28;20050;-58
2024/02/05 09:42:39;;;;;;;2.95;1.17;;;;;;;9.04;77.46;100354.06;4997677;28;20049;-54
2024/02/05 09:45:10;;;;;;;2.13;0.90;;;;;;;9.06;77.78;100352.38;4993582;28;20121;-54
2024/02/05 09:47:39;;;;;;;3.65;1.00;;;;;;;9.21;77.64;100347.34;4996620;28;20077;-54
2024/02/05 09:50:12;;;;;;;1.60;1.02;;;;;;;9.35;77.13;100349.13;4995250;28;20128;-57
2024/02/05 09:52:41;;;;;;;1.85;0.98;;;;;;;9.41;77.08;100344.03;5003195;28;20100;-51
2024/02/05 09:55:11;;;;;;;2.30;1.30;;;;;;;9.45;77.27;100347.47;4980440;28;20069;-58
2024/02/05 09:57:39;;;;;;;1.90;1.42;;;;;;;9.44;77.24;100344.06;4999812;28;20056;-56
2024/02/05 10:00:10;;;;;;;1.55;0.90;;;;;;;9.45;77.22;100340.59;4994052;28;20060;-56
2024/02/05 10:02:38;;;;;;;1.20;0.73;;;;;;;9.42;76.99;100340.56;4997486;28;20049;-53
2024/02/05 10:05:10;;;;;;;1.65;0.55;;;;;;;9.41;76.92;100328.50;4999413;28;20057;-55
2024/02/05 10:07:41;;;;;;;2.53;1.65;;;;;;;9.54;76.85;100334.63;5002095;28;20053;-62
2024/02/05 10:10:11;;;;;;;3.47;0.93;;;;;;;9.51;76.71;100343.25;5000146;28;20065;-56
2024/02/05 10:12:41;;;;;;;0.63;0.45;;;;;;;9.56;76.69;100334.63;4992945;28;20140;-57
2024/02/05 10:15:08;;;;;;;0.95;0.70;;;;;;;9.59;77.06;100327.75;4994761;28;20137;-57
2024/02/05 10:17:34;;;;;;;0.90;0.50;;;;;;;9.70;76.84;100327.84;4997242;28;20057;-57
2024/02/05 10:20:02;;;;;;;1.13;0.95;;;;;;;9.70;76.99;100333.00;5003939;28;20042;-54
2024/02/05 10:22:29;;;;;;;0.55;0.45;;;;;;;9.73;76.45;100319.22;4997425;28;20140;-54
2024/02/05 10:24:59;;;;;;;4.03;1.10;;;;;;;9.72;76.46;100313.19;4998722;28;20061;-57
2024/02/05 10:27:26;;;;;;;5.25;1.70;;;;;;;9.69;75.98;100313.16;4994413;28;20053;-55
2024/02/05 10:30:00;;;;;;;3.78;1.48;;;;;;;9.71;76.22;100311.44;4996821;28;20569;-54
2024/02/05 10:32:31;;;;;;;1.45;0.95;;;;;;;9.76;76.09;100309.75;4999133;28;20136;-54
2024/02/05 10:34:58;;;;;;;4.22;1.15;;;;;;;9.79;75.92;100310.63;4997830;28;20483;-58
2024/02/05 10:37:25;;;;;;;3.92;2.33;;;;;;;9.78;76.74;100309.75;4999382;28;20379;-56
2024/02/05 10:40:03;;;;;;;4.43;2.50;;;;;;;9.81;76.42;100299.44;4998270;28;20665;-56
2024/02/05 10:42:32;;;;;;;4.05;2.53;;;;;;;9.88;75.79;100308.94;4992717;28;20053;-50
2024/02/05 10:44:59;;;;;;;4.80;2.42;;;;;;;9.90;76.53;100308.97;4997374;28;20049;-55
2024/02/05 10:47:25;;;;;;;1.02;0.93;;;;;;;9.94;75.81;100304.66;4996375;28;20062;-55
2024/02/05 10:49:53;;;;;;;2.17;1.25;;;;;;;9.92;75.89;100314.97;5000729;28;20062;-56
2024/02/05 10:52:20;;;;;;;4.55;2.72;;;;;;;9.89;75.63;100310.66;5006008;28;20383;-57
2024/02/05 10:54:50;;;;;;;5.32;1.83;;;;;;;10.00;76.45;100317.63;5001054;28;20077;-51
2024/02/05 10:57:19;;;;;;;4.68;2.22;;;;;;;10.05;75.40;100309.84;5003821;28;20095;-52
2024/02/05 10:59:46;;;;;;;1.85;1.33;;;;;;;10.00;75.81;100323.63;5005649;28;20045;-59
2024/02/05 11:02:22;;;;;;;1.77;0.93;;;;;;;10.03;74.99;100308.13;5000677;28;20053;-58
2024/02/05 11:04:51;;;;;;;2.65;1.80;;;;;;;10.07;75.12;100313.31;5005520;28;20053;-53
2024/02/05 11:07:20;;;;;;;2.67;2.22;;;;;;;10.09;75.13;100311.59;5004584;28;20050;-58
2024/02/05 11:09:49;;;;;;;1.55;1.20;;;;;;;10.09;75.31;100311.59;5006813;28;20050;-56
2024/02/05 11:12:23;;;;;;;1.48;1.17;;;;;;;10.12;74.71;100311.59;5005120;28;20054;-57
2024/02/05 11:14:56;;;;;;;2.22;0.70;;;;;;;10.14;74.82;100304.72;4997909;28;20054;-56
2024/02/05 11:17:23;;;;;;;1.83;0.88;;;;;;;10.11;75.68;100309.88;5006499;28;20048;-54
2024/02/05 11:19:53;;;;;;;1.33;0.70;;;;;;;10.20;75.30;100304.72;5007875;28;20053;-56
2024/02/05 11:22:22;;;;;;;2.40;0.75;;;;;;;10.26;75.04;100304.75;5006163;28;20078;-54
2024/02/05 11:24:49;;;;;;;1.27;1.10;;;;;;;10.28;75.16;100308.22;5005678;28;20577;-61
2024/02/05 11:27:18;;;;;;;1.02;0.73;;;;;;;10.38;75.61;100293.56;5001792;28;20061;-53
2024/02/05 11:29:45;;;;;;;1.05;0.95;;;;;;;10.41;74.85;100297.88;5000195;28;20050;-54
2024/02/05 11:32:11;;;;;;;1.08;0.88;;;;;;;10.43;74.40;100284.94;5005318;28;20140;-55
2024/02/05 11:34:42;;;;;;;0.93;0.75;;;;;;;10.44;74.89;100292.72;5002256;28;20054;-55